Zouila, Tunisia
Current Conditions -  °F | °C
As of 11:30 PM on Thursday 20 Nov 2014 (Local Time) from DTMB Reporting Station
Moderate Fog Moderate Fog  
Wind Chill: 64°   Ceiling: Unl
Heat Index: 64°   Visibility: 0.18mi
Dew Point: 63°   Wind: 2mph
Humidity: 94%   Direction: 110°ESE
Pressure: 30.21"   Gusts: NA
Location:  35.5°N, 11.06°E
Report Text: DTMB 202230Z 11002KT 0300 R07/0250V0650D FG FEW016 18/17 Q1023 NOSIG
Loading
Personal Weather Stations






























Interactive Weather Map New forecast layout! Learn more

10-Day Weather Forecast

Advertisements
Track Severe Weather on mobile